Glover, VT

1:07 PM EDT on July 28, 2016 (GMT -0400)
| | Change Station

Elev -9999 ft 0.00 °N, 0.00 °E | Updated

Mostly Cloudy
Mostly Cloudy
78 °F
Feels Like 78 °F
N
6
Wind Variable Wind from WNW
Gusts mph

Today
High -- | Low -- °F
--% Chance of Precip.
Yesterday
High -- | Low -- °F
Precip. -- in
Pressure 29.92 in
Visibility 10.0 miles
Clouds Scattered Clouds 5000 ft
Scattered Clouds 6000 ft
Scattered Clouds 12000 ft
Dew Point 64 °F
Humidity 62%
Rainfall --
Snow Depth Not available.
5:31 AM 8:18 PM
Waning Crescent, 30% visible
METAR KEFK 281655Z AUTO 26005KT 10SM SCT050 SCT060 SCT120 25/19 A2992 RMK AO2 T02450193
Pressure 29.92 in
Visibility 10.0 miles
Clouds Scattered Clouds 5000 ft
Scattered Clouds 6000 ft
Scattered Clouds 12000 ft
Dew Point 64 °F
Humidity 62%
Rainfall --
Snow Depth Not available.
5:31 AM 8:18 PM
Waning Crescent, 30% visible
METAR KEFK 281655Z AUTO 26005KT 10SM SCT050 SCT060 SCT120 25/19 A2992 RMK AO2 T02450193

10-Day Weather Forecast

Almanac

Astronomy

Jul. 28, 2016 Rise Set
Actual Time
Civil Twilight
Nautical Twilight
Astronomical Twilight
Moon
Length of Visible Light
Length of Day
Tomorrow will be .
, % of the Moon is Illuminated

Today's Extremes

State Highs State Lows

Community

WunderPhotos

Upload Photos

1,928,155 photos uploaded!

WunderBlog® & News

Nearby

Air Quality

  Air Quality AQ Index Pollutant
Not available.

Snow Depth

Station Depth Elevation

Earthquake Activity

City Distance Mag. Time & Date
Minimum magnitude displayed is 2.5.

Coastal Water Temperatures

Place Temperature

Stations

Nearby Weather Stations

Station Location Temp. Windchill Dew Point Humidity Wind Precip. Elev Updated Type
                   

Watches & Warnings

There are currently no watches in effect.